createdAt,value
2023-03-30T00:01:04.906Z,9.69
2023-03-30T00:03:31.529Z,9.74
2023-03-30T00:06:05.032Z,9.67
2023-03-30T00:08:33.288Z,9.59
2023-03-30T00:11:18.012Z,9.63
2023-03-30T00:13:44.700Z,9.54
2023-03-30T00:16:13.984Z,9.57
2023-03-30T00:18:41.038Z,9.64
2023-03-30T00:21:09.902Z,9.64
2023-03-30T00:23:36.563Z,9.64
2023-03-30T00:26:03.802Z,9.72
2023-03-30T00:28:31.088Z,9.64
2023-03-30T00:30:57.803Z,9.54
2023-03-30T00:33:37.163Z,9.57
2023-03-30T00:36:10.712Z,9.52
2023-03-30T00:38:37.101Z,9.37
2023-03-30T00:41:03.952Z,9.46
2023-03-30T00:43:30.837Z,9.39
2023-03-30T00:45:57.559Z,9.39
2023-03-30T00:48:34.457Z,9.32
2023-03-30T00:51:09.534Z,9.21
2023-03-30T00:53:42.982Z,9.43
2023-03-30T00:56:13.570Z,9.19
2023-03-30T00:58:41.830Z,9.33
2023-03-30T01:01:11.792Z,9.18
2023-03-30T01:03:46.040Z,9.39
2023-03-30T01:06:14.060Z,9.22
2023-03-30T01:08:42.485Z,9.24
2023-03-30T01:11:08.859Z,9.28
2023-03-30T01:13:43.020Z,9.32
2023-03-30T01:16:30.445Z,9.32
2023-03-30T01:19:18.931Z,9.43
2023-03-30T01:22:00.714Z,9.42
2023-03-30T01:24:49.024Z,9.39
2023-03-30T01:27:45.925Z,9.54
2023-03-30T01:30:37.389Z,9.63
2023-03-30T01:33:23.978Z,9.67
2023-03-30T01:36:05.121Z,9.69
2023-03-30T01:38:46.437Z,9.73
2023-03-30T01:41:22.871Z,9.85
2023-03-30T01:44:08.703Z,10.39
2023-03-30T01:46:40.777Z,10.82
2023-03-30T01:49:17.779Z,11.42
2023-03-30T01:52:01.145Z,11.77
2023-03-30T01:54:43.884Z,11.99
2023-03-30T01:57:17.434Z,12.14
2023-03-30T02:00:14.647Z,12.38
2023-03-30T02:02:48.280Z,12.51
2023-03-30T02:05:17.930Z,12.51
2023-03-30T02:07:51.330Z,12.77
2023-03-30T02:10:21.263Z,12.62
2023-03-30T02:12:48.835Z,12.64
2023-03-30T02:15:17.126Z,12.63
2023-03-30T02:17:45.896Z,12.75
2023-03-30T02:20:13.008Z,12.74
2023-03-30T02:22:39.473Z,12.85
2023-03-30T02:25:06.448Z,12.76
2023-03-30T02:27:33.757Z,13.07
2023-03-30T02:30:00.257Z,12.96
2023-03-30T02:32:31.925Z,12.90
2023-03-30T02:35:27.915Z,12.93
2023-03-30T02:37:54.642Z,13.08
2023-03-30T02:40:33.658Z,13.00
2023-03-30T02:43:05.784Z,12.83
2023-03-30T02:45:52.204Z,12.79
2023-03-30T02:48:21.638Z,12.82
2023-03-30T02:51:25.328Z,12.81
2023-03-30T02:53:56.065Z,12.79
2023-03-30T02:56:37.563Z,12.78
2023-03-30T02:59:18.401Z,12.66
2023-03-30T03:01:58.024Z,12.63
2023-03-30T03:04:28.417Z,12.62
2023-03-30T03:06:55.719Z,12.51
2023-03-30T03:09:25.039Z,12.59
2023-03-30T03:11:52.829Z,12.50
2023-03-30T03:14:19.354Z,12.65
2023-03-30T03:16:45.766Z,12.75
2023-03-30T03:19:12.420Z,12.75
2023-03-30T03:21:38.868Z,12.80
2023-03-30T03:24:06.532Z,12.84
2023-03-30T03:26:33.868Z,12.84
2023-03-30T03:29:00.234Z,12.84
2023-03-30T03:31:27.262Z,12.60
2023-03-30T03:33:53.758Z,12.47
2023-03-30T03:36:20.700Z,12.33
2023-03-30T03:38:47.113Z,12.18
2023-03-30T03:41:13.543Z,11.97
2023-03-30T03:43:39.907Z,11.75
2023-03-30T03:46:06.661Z,11.66
2023-03-30T03:48:33.210Z,11.69
2023-03-30T03:50:59.611Z,11.63
2023-03-30T03:53:27.652Z,11.65
2023-03-30T03:55:54.892Z,11.44
2023-03-30T03:58:21.512Z,11.32
2023-03-30T04:00:48.755Z,11.23
2023-03-30T04:03:15.472Z,11.46
2023-03-30T04:05:42.121Z,11.45
2023-03-30T04:08:12.106Z,11.29
2023-03-30T04:10:39.998Z,11.11
2023-03-30T04:13:06.686Z,11.03
2023-03-30T04:15:33.697Z,10.91
2023-03-30T04:18:00.201Z,10.81
2023-03-30T04:20:27.860Z,10.73
2023-03-30T04:22:54.983Z,10.73
2023-03-30T04:25:25.677Z,10.74
2023-03-30T04:27:52.824Z,10.66
2023-03-30T04:30:22.361Z,10.68
2023-03-30T04:33:02.373Z,10.48
2023-03-30T04:35:33.102Z,10.46
2023-03-30T04:38:00.400Z,10.58
2023-03-30T04:40:27.208Z,10.42
2023-03-30T04:42:53.891Z,10.33
2023-03-30T04:45:20.963Z,10.29
2023-03-30T04:47:47.641Z,10.24
2023-03-30T04:50:14.418Z,10.25
2023-03-30T04:52:40.891Z,10.30
2023-03-30T04:55:08.677Z,10.19
2023-03-30T04:57:35.280Z,10.22
2023-03-30T05:00:01.811Z,10.19
2023-03-30T05:02:28.224Z,10.45
2023-03-30T05:04:54.611Z,10.77
2023-03-30T05:07:21.549Z,10.87
2023-03-30T05:09:47.922Z,11.00
2023-03-30T05:12:16.187Z,10.97
2023-03-30T05:14:42.840Z,11.04
2023-03-30T05:17:09.481Z,11.14
2023-03-30T05:19:36.733Z,11.06
2023-03-30T05:22:03.109Z,11.00
2023-03-30T05:24:29.457Z,10.88
2023-03-30T05:26:56.325Z,10.88
2023-03-30T05:29:22.683Z,10.83
2023-03-30T05:31:49.097Z,10.89
2023-03-30T05:34:15.817Z,11.00
2023-03-30T05:36:42.157Z,11.02
2023-03-30T05:39:09.015Z,10.90
2023-03-30T05:41:35.525Z,10.90
2023-03-30T05:44:01.901Z,11.12
2023-03-30T05:46:28.441Z,11.05
2023-03-30T05:48:54.822Z,11.08
2023-03-30T05:51:21.585Z,11.05
2023-03-30T05:53:47.923Z,11.21
2023-03-30T05:56:14.290Z,11.19
2023-03-30T05:58:40.645Z,11.19
2023-03-30T06:01:07.474Z,11.26
2023-03-30T06:03:34.073Z,11.33
2023-03-30T06:06:00.847Z,11.22
2023-03-30T06:08:28.001Z,11.23
2023-03-30T06:10:56.076Z,11.33
2023-03-30T06:13:22.676Z,11.24
2023-03-30T06:15:49.122Z,11.22
2023-03-30T06:18:15.851Z,11.18
2023-03-30T06:20:42.466Z,11.25
2023-03-30T06:23:08.885Z,11.12
2023-03-30T06:25:36.776Z,11.02
2023-03-30T06:28:03.377Z,11.02
2023-03-30T06:30:30.085Z,10.99
2023-03-30T06:32:56.728Z,10.87
2023-03-30T06:35:23.177Z,11.01
2023-03-30T06:37:49.638Z,10.94
2023-03-30T06:40:17.230Z,10.94
2023-03-30T06:42:44.292Z,11.00
2023-03-30T06:45:11.560Z,10.93
2023-03-30T06:47:38.016Z,10.93
2023-03-30T06:50:04.831Z,11.09
2023-03-30T06:52:34.940Z,11.04
2023-03-30T06:55:01.524Z,11.03
2023-03-30T06:57:28.021Z,11.05
2023-03-30T06:59:54.402Z,11.25
2023-03-30T07:02:20.994Z,11.30
2023-03-30T07:04:47.444Z,11.34
2023-03-30T07:07:14.164Z,11.26
2023-03-30T07:09:40.497Z,11.35
2023-03-30T07:12:07.247Z,11.32
2023-03-30T07:14:33.644Z,11.25
2023-03-30T07:17:00.117Z,11.25
2023-03-30T07:19:26.545Z,11.37
2023-03-30T07:21:52.901Z,11.47
2023-03-30T07:24:19.279Z,11.50
2023-03-30T07:26:45.654Z,11.57
2023-03-30T07:29:12.003Z,11.44
2023-03-30T07:31:38.459Z,11.49
2023-03-30T07:34:04.817Z,11.66
2023-03-30T07:36:31.175Z,11.72
2023-03-30T07:38:58.467Z,11.97
2023-03-30T07:41:24.858Z,12.09
2023-03-30T07:43:51.497Z,11.99
2023-03-30T07:46:17.916Z,12.04
2023-03-30T07:48:44.318Z,12.05
2023-03-30T07:51:12.914Z,12.09
2023-03-30T07:53:39.571Z,12.15
2023-03-30T07:56:06.745Z,12.12
2023-03-30T07:58:33.390Z,12.21
2023-03-30T08:01:03.603Z,12.20
2023-03-30T08:03:31.944Z,12.21
2023-03-30T08:06:04.752Z,12.13
2023-03-30T08:08:33.373Z,12.03
2023-03-30T08:10:59.842Z,12.10
2023-03-30T08:13:27.163Z,12.07
2023-03-30T08:15:54.506Z,12.07
2023-03-30T08:18:21.569Z,12.07
2023-03-30T08:20:51.604Z,12.04
2023-03-30T08:23:18.892Z,12.04
2023-03-30T08:25:47.182Z,12.06
2023-03-30T08:28:13.776Z,12.29
2023-03-30T08:30:40.113Z,12.32
2023-03-30T08:33:08.971Z,12.47
2023-03-30T08:35:35.486Z,12.62
2023-03-30T08:38:01.907Z,12.56
2023-03-30T08:40:28.275Z,12.70
2023-03-30T08:43:28.631Z,12.98
2023-03-30T08:45:55.152Z,13.07
2023-03-30T08:48:24.855Z,13.20
2023-03-30T08:50:59.434Z,13.35
2023-03-30T08:53:29.626Z,13.30
2023-03-30T08:56:16.198Z,13.24
2023-03-30T08:59:07.114Z,13.14
2023-03-30T09:01:47.918Z,13.15
2023-03-30T09:05:01.560Z,13.13
2023-03-30T09:07:39.629Z,13.03
2023-03-30T09:10:14.219Z,12.90
2023-03-30T09:12:48.716Z,13.01
2023-03-30T09:15:21.177Z,12.95
2023-03-30T09:17:49.777Z,12.96
2023-03-30T09:20:22.560Z,12.88
2023-03-30T09:22:50.183Z,12.89
2023-03-30T09:25:28.072Z,12.87
2023-03-30T09:28:08.597Z,13.05
2023-03-30T09:30:42.994Z,13.13
2023-03-30T09:33:41.433Z,13.28
2023-03-30T09:36:14.812Z,13.40
2023-03-30T09:38:42.228Z,13.48
2023-03-30T09:41:28.578Z,13.55
2023-03-30T09:43:57.923Z,13.62
2023-03-30T09:46:24.360Z,13.60
2023-03-30T09:48:51.372Z,13.72
2023-03-30T09:51:21.565Z,13.53
2023-03-30T09:53:51.296Z,13.39
2023-03-30T09:56:24.904Z,13.31
2023-03-30T09:58:51.270Z,13.26
2023-03-30T10:01:20.216Z,13.24
2023-03-30T10:04:07.516Z,13.31
2023-03-30T10:06:38.968Z,13.39
2023-03-30T10:09:11.345Z,13.57
2023-03-30T10:11:44.848Z,13.83
2023-03-30T10:14:35.558Z,14.03
2023-03-30T10:17:04.282Z,14.23
2023-03-30T10:19:36.292Z,14.51
2023-03-30T10:22:17.255Z,14.49
2023-03-30T10:24:55.638Z,14.40
2023-03-30T10:27:34.246Z,14.48
2023-03-30T10:30:09.549Z,14.40
2023-03-30T10:32:36.612Z,14.16
2023-03-30T10:35:09.997Z,14.19
2023-03-30T10:37:44.534Z,14.16
2023-03-30T10:40:32.288Z,14.21
2023-03-30T10:43:00.753Z,14.08
2023-03-30T10:45:40.448Z,14.09
2023-03-30T10:48:27.965Z,14.11
2023-03-30T10:51:31.998Z,14.13
2023-03-30T10:54:24.740Z,13.93
2023-03-30T10:56:54.981Z,13.76
2023-03-30T10:59:42.060Z,13.89
2023-03-30T11:02:27.976Z,14.05
2023-03-30T11:05:17.526Z,14.21
2023-03-30T11:07:58.928Z,14.46
2023-03-30T11:10:32.067Z,14.53
2023-03-30T11:13:02.833Z,14.64
2023-03-30T11:15:35.954Z,14.81
2023-03-30T11:18:09.757Z,14.70
2023-03-30T11:20:43.844Z,14.74
2023-03-30T11:23:22.844Z,14.78
2023-03-30T11:25:57.875Z,14.58
2023-03-30T11:28:43.082Z,14.58
2023-03-30T11:31:31.299Z,14.49
2023-03-30T11:34:07.534Z,14.36
2023-03-30T11:36:44.011Z,14.10
2023-03-30T11:39:28.883Z,13.86
2023-03-30T11:42:16.098Z,13.50
2023-03-30T11:44:43.432Z,13.30
2023-03-30T11:47:35.133Z,13.21
2023-03-30T11:50:11.985Z,13.19
2023-03-30T11:52:54.503Z,13.17
2023-03-30T11:55:51.011Z,13.29
2023-03-30T11:58:36.246Z,13.70
2023-03-30T12:01:31.720Z,13.82
2023-03-30T12:04:16.410Z,14.25
2023-03-30T12:06:57.556Z,14.32
2023-03-30T12:09:54.423Z,14.48
2023-03-30T12:12:32.585Z,14.47
2023-03-30T12:15:11.644Z,14.54
2023-03-30T12:17:51.762Z,14.41
2023-03-30T12:20:36.882Z,14.41
2023-03-30T12:23:26.654Z,14.38
2023-03-30T12:25:59.806Z,14.17
2023-03-30T12:28:35.779Z,14.06
2023-03-30T12:31:14.455Z,13.26
2023-03-30T12:33:51.649Z,12.06
2023-03-30T12:36:33.989Z,11.50
2023-03-30T12:39:02.612Z,11.08
2023-03-30T12:41:41.280Z,10.90
2023-03-30T12:44:20.453Z,10.87
2023-03-30T12:47:00.118Z,10.81
2023-03-30T12:49:42.566Z,10.83
2023-03-30T12:52:17.897Z,10.90
2023-03-30T12:55:13.842Z,10.96
2023-03-30T12:58:13.473Z,11.00
2023-03-30T13:00:47.469Z,11.00
2023-03-30T13:03:34.389Z,10.92
2023-03-30T13:06:02.600Z,10.89
2023-03-30T13:08:37.843Z,11.02
2023-03-30T13:11:19.075Z,11.05
2023-03-30T13:13:55.252Z,11.24
2023-03-30T13:16:52.113Z,11.40
2023-03-30T13:19:33.824Z,11.73
2023-03-30T13:22:12.099Z,11.95
2023-03-30T13:24:41.713Z,12.12
2023-03-30T13:27:13.825Z,12.27
2023-03-30T13:29:41.600Z,12.26
2023-03-30T13:32:38.531Z,12.42
2023-03-30T13:35:50.089Z,12.52
2023-03-30T13:38:34.684Z,12.63
2023-03-30T13:41:28.141Z,12.80
2023-03-30T13:44:18.682Z,12.68
2023-03-30T13:46:49.881Z,12.52
2023-03-30T13:49:25.643Z,12.37
2023-03-30T13:51:54.682Z,12.15
2023-03-30T13:54:29.252Z,12.01
2023-03-30T13:57:12.484Z,11.54
2023-03-30T13:59:44.881Z,11.25
2023-03-30T14:02:16.817Z,11.11
2023-03-30T14:04:44.744Z,10.81
2023-03-30T14:07:17.773Z,10.79
2023-03-30T14:10:02.035Z,10.61
2023-03-30T14:12:28.507Z,10.60
2023-03-30T14:14:54.939Z,10.58
2023-03-30T14:17:23.534Z,10.55
2023-03-30T14:20:24.480Z,10.66
2023-03-30T14:22:51.688Z,10.48
2023-03-30T14:25:26.168Z,10.61
2023-03-30T14:27:53.109Z,10.66
2023-03-30T14:30:20.811Z,10.69
2023-03-30T14:32:47.355Z,10.63
2023-03-30T14:35:18.344Z,10.69
2023-03-30T14:37:51.636Z,10.64
2023-03-30T14:40:19.387Z,10.86
2023-03-30T14:42:45.763Z,10.85
2023-03-30T14:45:17.276Z,10.95
2023-03-30T14:47:46.069Z,11.14
2023-03-30T14:50:16.036Z,11.22
2023-03-30T14:52:46.516Z,11.17
2023-03-30T14:55:20.028Z,11.11
2023-03-30T14:57:46.847Z,11.19
2023-03-30T15:00:24.821Z,11.48
2023-03-30T15:02:54.875Z,11.42
2023-03-30T15:05:25.100Z,11.48
2023-03-30T15:07:52.868Z,11.49
2023-03-30T15:10:23.375Z,11.58
2023-03-30T15:12:50.786Z,11.60
2023-03-30T15:15:24.173Z,11.66
2023-03-30T15:17:51.279Z,11.70
2023-03-30T15:20:18.437Z,11.61
2023-03-30T15:22:48.352Z,11.60
2023-03-30T15:25:18.539Z,11.63
2023-03-30T15:27:53.215Z,11.55
2023-03-30T15:30:35.398Z,11.62
2023-03-30T15:33:02.420Z,11.55
2023-03-30T15:35:34.799Z,11.44
2023-03-30T15:38:13.391Z,11.41
2023-03-30T15:40:43.205Z,11.44
2023-03-30T15:43:16.505Z,11.33
2023-03-30T15:45:48.662Z,11.34
2023-03-30T15:48:37.329Z,11.36
2023-03-30T15:51:38.846Z,11.37
2023-03-30T15:54:17.614Z,11.27
2023-03-30T15:57:01.419Z,11.32
2023-03-30T15:59:33.708Z,11.23
2023-03-30T16:02:15.304Z,11.32
2023-03-30T16:04:41.874Z,11.37
2023-03-30T16:07:15.748Z,11.26
2023-03-30T16:09:42.200Z,11.23
2023-03-30T16:12:12.751Z,11.12
2023-03-30T16:14:39.735Z,11.15
2023-03-30T16:17:06.209Z,11.13
2023-03-30T16:19:32.666Z,11.01
2023-03-30T16:21:59.034Z,11.29
2023-03-30T16:24:25.399Z,11.65
2023-03-30T16:26:51.762Z,11.89
2023-03-30T16:29:23.538Z,12.03
2023-03-30T16:31:51.000Z,11.78
2023-03-30T16:34:18.411Z,11.67
2023-03-30T16:36:45.463Z,11.46
2023-03-30T16:39:17.916Z,11.40
2023-03-30T16:41:44.602Z,11.22
2023-03-30T16:44:11.163Z,11.15
2023-03-30T16:46:37.630Z,11.07
2023-03-30T16:49:04.015Z,10.94
2023-03-30T16:51:30.407Z,10.86
2023-03-30T16:53:56.758Z,10.78
2023-03-30T16:56:23.291Z,10.70
2023-03-30T16:58:50.041Z,10.66
2023-03-30T17:01:18.352Z,10.50
2023-03-30T17:03:45.706Z,10.48
2023-03-30T17:06:13.991Z,10.44
2023-03-30T17:08:42.823Z,10.41
2023-03-30T17:11:10.827Z,10.43
2023-03-30T17:13:37.212Z,10.37
2023-03-30T17:16:03.682Z,10.37
2023-03-30T17:18:30.617Z,10.26
2023-03-30T17:20:59.046Z,10.25
2023-03-30T17:23:27.970Z,10.27
2023-03-30T17:25:56.819Z,10.21
2023-03-30T17:28:28.525Z,10.25
2023-03-30T17:30:58.088Z,10.23
2023-03-30T17:33:24.830Z,10.15
2023-03-30T17:35:58.236Z,10.14
2023-03-30T17:38:24.739Z,10.14
2023-03-30T17:40:51.577Z,10.06
2023-03-30T17:43:18.322Z,9.99
2023-03-30T17:45:46.308Z,9.98
2023-03-30T17:48:16.515Z,10.05
2023-03-30T17:50:46.046Z,9.99
2023-03-30T17:53:20.524Z,10.05
2023-03-30T17:55:49.004Z,10.06
2023-03-30T17:58:33.985Z,10.02
2023-03-30T18:01:03.238Z,10.08
2023-03-30T18:03:30.029Z,10.05
2023-03-30T18:05:57.959Z,10.11
2023-03-30T18:08:25.187Z,10.24
2023-03-30T18:10:59.239Z,10.20
2023-03-30T18:13:26.506Z,10.33
2023-03-30T18:15:55.082Z,10.28
2023-03-30T18:18:24.968Z,10.33
2023-03-30T18:20:56.113Z,10.23
2023-03-30T18:23:23.038Z,10.29
2023-03-30T18:25:50.196Z,10.32
2023-03-30T18:28:27.399Z,10.30
2023-03-30T18:30:57.252Z,10.21
2023-03-30T18:33:24.722Z,10.11
2023-03-30T18:35:52.877Z,10.18
2023-03-30T18:38:21.638Z,10.18
2023-03-30T18:40:51.834Z,10.34
2023-03-30T18:43:18.201Z,10.18
2023-03-30T18:45:46.568Z,10.13
2023-03-30T18:48:15.906Z,10.10
2023-03-30T18:50:53.253Z,10.07
2023-03-30T18:53:25.180Z,10.06
2023-03-30T18:55:54.234Z,10.10
2023-03-30T18:58:26.241Z,10.14
2023-03-30T19:00:54.833Z,10.02
2023-03-30T19:03:22.631Z,10.09
2023-03-30T19:05:49.894Z,10.06
2023-03-30T19:08:22.463Z,10.14
2023-03-30T19:10:51.818Z,10.09
2023-03-30T19:13:19.767Z,10.04
2023-03-30T19:15:47.201Z,10.15
2023-03-30T19:18:14.973Z,10.27
2023-03-30T19:20:42.038Z,10.25
2023-03-30T19:23:11.539Z,10.11
2023-03-30T19:25:38.304Z,10.13
2023-03-30T19:28:05.837Z,10.08
2023-03-30T19:30:35.349Z,10.08
2023-03-30T19:33:05.632Z,10.13
2023-03-30T19:35:32.533Z,10.20
2023-03-30T19:37:59.424Z,10.24
2023-03-30T19:40:26.428Z,10.27
2023-03-30T19:42:53.125Z,10.28
2023-03-30T19:45:23.494Z,10.35
2023-03-30T19:47:50.810Z,10.39
2023-03-30T19:50:19.323Z,10.38
2023-03-30T19:52:50.367Z,10.41
2023-03-30T19:55:20.817Z,10.32
2023-03-30T19:57:47.544Z,10.31
2023-03-30T20:00:16.484Z,10.24
2023-03-30T20:02:45.910Z,10.17
2023-03-30T20:05:13.276Z,10.10
2023-03-30T20:07:40.589Z,10.08
2023-03-30T20:10:09.057Z,10.08
2023-03-30T20:12:35.481Z,10.03
2023-03-30T20:15:03.910Z,9.94
2023-03-30T20:17:30.464Z,9.94
2023-03-30T20:19:58.473Z,9.93
2023-03-30T20:22:25.426Z,9.94
2023-03-30T20:24:51.832Z,10.01
2023-03-30T20:27:18.184Z,9.86
2023-03-30T20:29:44.555Z,9.88
2023-03-30T20:32:10.996Z,9.98
2023-03-30T20:34:37.380Z,9.88
2023-03-30T20:37:03.737Z,10.00
2023-03-30T20:39:30.080Z,10.01
2023-03-30T20:41:58.223Z,10.10
2023-03-30T20:44:31.821Z,10.06
2023-03-30T20:46:59.219Z,10.02
2023-03-30T20:49:26.287Z,9.87
2023-03-30T20:51:53.212Z,9.87
2023-03-30T20:54:20.541Z,9.80
2023-03-30T20:56:47.081Z,9.81
2023-03-30T20:59:13.550Z,9.82
2023-03-30T21:01:40.882Z,9.78
2023-03-30T21:04:08.192Z,9.82
2023-03-30T21:06:36.000Z,9.98
2023-03-30T21:09:05.729Z,9.95
2023-03-30T21:11:35.215Z,9.96
2023-03-30T21:14:02.150Z,9.94
2023-03-30T21:16:28.797Z,9.93
2023-03-30T21:18:55.318Z,9.96
2023-03-30T21:21:21.742Z,9.95
2023-03-30T21:23:48.628Z,10.02
2023-03-30T21:26:15.790Z,9.93
2023-03-30T21:28:42.127Z,9.89
2023-03-30T21:31:11.839Z,9.88
2023-03-30T21:33:38.238Z,9.92
2023-03-30T21:36:06.301Z,9.96
2023-03-30T21:38:33.308Z,9.87
2023-03-30T21:41:06.383Z,9.89
2023-03-30T21:43:37.223Z,9.86
2023-03-30T21:46:06.250Z,9.88
2023-03-30T21:48:35.185Z,9.82
2023-03-30T21:51:13.489Z,9.74
2023-03-30T21:53:41.505Z,9.73
2023-03-30T21:56:08.374Z,9.75
2023-03-30T21:58:35.194Z,9.68
2023-03-30T22:01:11.649Z,9.64
2023-03-30T22:03:40.659Z,9.67
2023-03-30T22:06:09.402Z,9.72
2023-03-30T22:08:35.989Z,9.65
2023-03-30T22:11:05.736Z,9.63
2023-03-30T22:13:32.892Z,9.64
2023-03-30T22:16:01.487Z,9.60
2023-03-30T22:18:28.642Z,9.54
2023-03-30T22:21:01.635Z,9.61
2023-03-30T22:23:28.241Z,9.46
2023-03-30T22:25:54.641Z,9.47
2023-03-30T22:28:21.324Z,9.43
2023-03-30T22:30:48.059Z,9.40
2023-03-30T22:33:15.954Z,9.46
2023-03-30T22:35:44.140Z,9.31
2023-03-30T22:38:11.621Z,9.39
2023-03-30T22:40:41.653Z,9.36
2023-03-30T22:43:09.245Z,9.33
2023-03-30T22:45:35.917Z,9.34
2023-03-30T22:48:02.374Z,9.26
2023-03-30T22:50:29.673Z,9.27
2023-03-30T22:52:57.229Z,9.30
2023-03-30T22:55:24.625Z,9.28
2023-03-30T22:57:55.683Z,9.31
2023-03-30T23:00:22.345Z,9.37
2023-03-30T23:02:49.925Z,9.30
2023-03-30T23:05:16.989Z,9.29
2023-03-30T23:07:48.078Z,9.37
2023-03-30T23:10:17.841Z,9.28
2023-03-30T23:12:45.046Z,9.35
2023-03-30T23:15:12.057Z,9.29
2023-03-30T23:17:39.611Z,9.36
2023-03-30T23:20:10.059Z,9.21
2023-03-30T23:22:37.613Z,9.22
2023-03-30T23:25:05.188Z,9.13
2023-03-30T23:27:31.573Z,9.13
2023-03-30T23:29:57.915Z,9.08
2023-03-30T23:32:24.322Z,9.05
2023-03-30T23:34:50.678Z,9.06
2023-03-30T23:37:17.483Z,9.02
2023-03-30T23:39:44.113Z,8.90
2023-03-30T23:42:10.650Z,8.90
2023-03-30T23:44:36.996Z,8.84
2023-03-30T23:47:03.412Z,8.74
2023-03-30T23:49:29.821Z,8.72
2023-03-30T23:51:56.324Z,8.74
2023-03-30T23:54:23.197Z,8.71
2023-03-30T23:56:56.934Z,8.67
2023-03-30T23:59:24.193Z,8.67
